Etusivu
METAR-TAF:

METAR-TAF

Lentoasemat :

Mécheria, Algeria

Leveyspiiri: 34-56N, Pituuspiiri: 000-26W, korkeus merenpinnasta: 1149 m

Tämänhetkinen sää

Tämä raportti tehtiin 2 tuntia ja 58 minuuttia sitten, kello 22.00 UTC
Tuuli 10 kn pohjoisesta
Lämpötila 22°C
Kosteus 35%
Ilmanpaine 1024 hPa
Näkyvyys: 6000 m

METAR: DAAY 172200Z 01010KT 6000 NSC 22/06 Q1024

Aika: 01:58 (00:58 UTC)

Sääennuste

Tämä raportti tehtiin 1 tunti ja 58 minuuttia sitten, kello 23.00 UTC
Ennuste voimassa 18. päivästä klo 00 UTC - 18. päivään klo 09 UTC
Tuuli 12 kn pohjoisesta
Näkyvyys: 6000 m

TAF: DAAY 172300Z 1800/1809 01012KT 6000 NSC

Säähavainnot ja -ennusteet yli 4000 lentoasemalta (METAR- ja TAF-raportit).

Käytössä olevat sääasemat on merkitty karttaan keltaisilla ja punaisilla pisteillä.

Aseta hiiri pisteen päälle nähdäksesi sääaseman nimen.

Klikkaa sitten nähdäksesi säähavainnot ja -ennusteet.

Kartan vaihtaminen: klikkaa mustalla rastilla varustettuja vihreitä pisteitä, niin voit zoomata sisään; viivalla varustettua vihreää pistettä, niin voit zoomata ulos tai vihreitä nuolia, niin pääset viereisille kartoille.


METAR-TAF: